createdAt,value
2023-04-24T05:52:24.727Z,0.49
2023-04-24T05:57:31.402Z,0.96
2023-04-24T06:02:39.127Z,1.33
2023-04-24T06:07:45.853Z,1.65
2023-04-24T06:12:49.526Z,2.13
2023-04-24T06:17:54.616Z,2.25
2023-04-24T06:22:59.589Z,3.20
2023-04-24T06:28:03.604Z,2.84
2023-04-24T06:33:19.961Z,3.15
2023-04-24T06:38:29.065Z,4.18
2023-04-24T06:43:32.576Z,4.78
2023-04-24T06:48:35.956Z,4.98
2023-04-24T06:53:40.882Z,5.21
2023-04-24T06:58:49.480Z,4.95
2023-04-24T07:03:55.483Z,5.17
2023-04-24T07:09:01.371Z,5.10
2023-04-24T07:14:05.404Z,4.66
2023-04-24T07:19:08.987Z,4.19
2023-04-24T07:24:13.919Z,4.05
2023-04-24T07:29:17.282Z,5.05
2023-04-24T07:34:22.731Z,4.10
2023-04-24T07:39:27.594Z,3.88
2023-04-24T07:44:31.013Z,3.66
2023-04-24T07:49:39.179Z,3.29
2023-04-24T07:54:45.182Z,3.58
2023-04-24T07:59:48.910Z,3.46
2023-04-24T08:04:52.713Z,3.54
2023-04-24T08:10:00.349Z,3.13
2023-04-24T08:15:05.975Z,2.69
2023-04-24T08:20:14.344Z,2.73
2023-04-24T08:25:20.219Z,2.78
2023-04-24T08:30:26.096Z,2.75
2023-04-24T08:35:31.526Z,2.81
2023-04-24T08:40:39.436Z,2.81
2023-04-24T08:45:42.833Z,3.28
2023-04-24T08:50:46.990Z,3.49
2023-04-24T08:55:52.711Z,3.34
2023-04-24T09:00:56.896Z,3.48
2023-04-24T09:06:02.977Z,3.72
2023-04-24T09:11:30.829Z,3.96
2023-04-24T09:16:39.190Z,3.67
2023-04-24T09:21:44.879Z,3.77
2023-04-24T09:26:49.405Z,3.93
2023-04-24T09:31:54.739Z,4.09
2023-04-24T09:37:04.877Z,3.83
2023-04-24T09:42:16.411Z,3.92
2023-04-24T09:47:21.406Z,3.70
2023-04-24T09:52:26.156Z,3.40
2023-04-24T09:57:29.740Z,3.46
2023-04-24T10:02:38.269Z,3.59
2023-04-24T10:07:46.720Z,3.33
2023-04-24T10:12:54.749Z,2.80
2023-04-24T10:18:02.753Z,3.01
2023-04-24T10:23:09.105Z,3.54
2023-04-24T10:28:16.853Z,3.93
2023-04-24T10:33:28.316Z,4.05
2023-04-24T10:38:32.853Z,3.68
2023-04-24T10:43:36.649Z,3.20
2023-04-24T10:48:48.980Z,2.74
2023-04-24T10:53:55.237Z,2.18
2023-04-24T10:58:58.832Z,1.94
2023-04-24T11:04:05.457Z,1.77
2023-04-24T11:09:19.399Z,1.94
2023-04-24T11:14:22.938Z,2.18
2023-04-24T11:19:30.644Z,2.58
2023-04-24T11:24:40.235Z,2.58
2023-04-24T11:29:51.054Z,3.03
2023-04-24T11:34:58.092Z,3.19
2023-04-24T11:40:02.550Z,3.48
2023-04-24T11:45:12.112Z,2.99
2023-04-24T11:50:18.093Z,2.17
2023-04-24T11:55:28.961Z,1.20
2023-04-24T12:00:41.019Z,0.46
2023-04-24T12:05:48.360Z,-0.08
2023-04-24T12:11:24.734Z,0.12
2023-04-24T12:16:28.349Z,0.77
2023-04-24T12:21:35.727Z,1.02
2023-04-24T12:26:44.740Z,1.23
2023-04-24T12:31:48.157Z,1.22
2023-04-24T12:36:52.891Z,1.36
2023-04-24T12:42:00.219Z,1.46
2023-04-24T12:47:05.908Z,1.64
2023-04-24T12:52:10.928Z,1.48
2023-04-24T12:57:27.105Z,1.21
2023-04-24T13:02:32.215Z,1.26
2023-04-24T13:07:39.085Z,1.28
2023-04-24T13:12:47.432Z,1.55
2023-04-24T13:17:52.131Z,1.70
2023-04-24T13:22:59.478Z,2.00
2023-04-24T13:28:05.859Z,2.08
2023-04-24T13:33:09.319Z,2.37
2023-04-24T13:38:14.138Z,2.42
2023-04-24T13:43:17.749Z,1.91
2023-04-24T13:48:21.753Z,1.93
2023-04-24T13:53:27.525Z,1.78
2023-04-24T13:58:31.136Z,2.00
2023-04-24T14:03:35.379Z,2.22
2023-04-24T14:08:40.405Z,2.22
2023-04-24T14:13:44.653Z,2.16
2023-04-24T14:18:51.253Z,2.02
2023-04-24T14:23:56.006Z,2.37
2023-04-24T14:29:11.642Z,2.24
2023-04-24T14:34:18.923Z,2.29
2023-04-24T14:39:23.838Z,2.44
2023-04-24T14:44:27.361Z,2.20
2023-04-24T14:49:30.957Z,1.91
2023-04-24T14:54:52.243Z,1.71
2023-04-24T14:59:55.659Z,2.12
2023-04-24T15:04:59.979Z,1.95
2023-04-24T15:10:05.324Z,1.59
2023-04-24T15:15:10.089Z,1.66
2023-04-24T15:20:13.586Z,1.83
2023-04-24T15:25:18.586Z,1.58
2023-04-24T15:30:21.892Z,1.75
2023-04-24T15:35:25.359Z,1.77
2023-04-24T15:40:30.150Z,1.30
2023-04-24T15:45:34.571Z,0.84
2023-04-24T15:50:37.940Z,0.54
2023-04-24T15:55:47.965Z,0.52
2023-04-24T16:00:51.286Z,0.18
2023-04-24T16:05:57.845Z,0.17
2023-04-24T16:11:06.159Z,-0.04
2023-04-24T16:16:09.387Z,-0.51
2023-04-24T16:21:12.692Z,-0.74
2023-04-24T16:26:17.371Z,-0.76
2023-04-24T16:31:23.458Z,-0.82
2023-04-24T16:36:26.941Z,-0.75
2023-04-24T16:41:31.765Z,-0.71
2023-04-24T16:46:35.249Z,-0.82
2023-04-24T16:51:42.752Z,-1.15
2023-04-24T16:56:47.885Z,-1.63
2023-04-24T17:01:51.280Z,-1.81
2023-04-24T17:06:54.916Z,-1.84
2023-04-24T17:11:59.641Z,-2.11
2023-04-24T17:17:03.223Z,-2.23
2023-04-24T17:22:06.773Z,-2.42
2023-04-24T17:27:15.642Z,-2.70
2023-04-24T17:32:19.078Z,-2.85
2023-04-24T17:37:23.397Z,-3.13
2023-04-24T17:42:28.050Z,-3.36
2023-04-24T17:47:34.023Z,-3.61
2023-04-24T17:52:39.569Z,-3.61
2023-04-24T17:57:44.377Z,-3.68
2023-04-24T18:02:49.686Z,-3.75
2023-04-24T18:07:53.280Z,-3.86
2023-04-24T18:12:58.145Z,-3.93
2023-04-24T18:18:03.989Z,-4.04
2023-04-24T18:23:09.900Z,-4.28
2023-04-24T18:28:17.219Z,-4.35
2023-04-24T18:33:20.516Z,-4.73
2023-04-24T18:38:23.845Z,-4.89
2023-04-24T18:43:28.726Z,-5.05
2023-04-24T18:48:34.495Z,-5.28
2023-04-24T18:53:37.756Z,-5.44
2023-04-24T18:58:46.176Z,-5.55
2023-04-24T19:03:49.823Z,-5.82
2023-04-24T19:08:53.421Z,-6.05
2023-04-24T19:14:00.468Z,-6.18
2023-04-24T19:19:05.510Z,-6.24
2023-04-24T19:24:10.921Z,-6.45
2023-04-24T19:29:15.673Z,-6.56
2023-04-24T19:34:19.090Z,-6.36
2023-04-24T19:39:22.690Z,-6.31
2023-04-24T19:44:27.382Z,-6.38
2023-04-24T19:49:31.258Z,-6.52
2023-04-24T19:54:37.537Z,-6.66
2023-04-24T19:59:42.366Z,-6.77
2023-04-24T20:04:46.177Z,-6.66
2023-04-24T20:09:49.730Z,-6.60
2023-04-24T20:14:54.438Z,-6.64
2023-04-24T20:19:57.823Z,-6.81
2023-04-24T20:25:01.332Z,-6.98
2023-04-24T20:30:10.386Z,-7.13
2023-04-24T20:35:13.753Z,-7.12
2023-04-24T20:40:17.743Z,-7.20
2023-04-24T20:45:24.216Z,-7.14
2023-04-24T20:50:27.750Z,-7.11
2023-04-24T20:55:31.283Z,-6.97
2023-04-24T21:00:36.385Z,-6.87
2023-04-24T21:05:39.872Z,-6.97
2023-04-24T21:10:43.325Z,-7.12
2023-04-24T21:15:48.164Z,-7.10
2023-04-24T21:20:51.780Z,-7.20
2023-04-24T21:25:55.174Z,-7.36
2023-04-24T21:30:59.941Z,-7.46
2023-04-24T21:36:05.954Z,-7.56
2023-04-24T21:41:09.250Z,-7.65
